createdAt,value
2023-11-23T00:01:28.640Z,101212.94
2023-11-23T00:06:31.299Z,101188.22
2023-11-23T00:11:35.529Z,101170.16
2023-11-23T00:16:38.233Z,101158.97
2023-11-23T00:21:40.932Z,101153.53
2023-11-23T00:26:44.904Z,101138.69
2023-11-23T00:31:47.470Z,101117.91
2023-11-23T00:36:50.385Z,101102.69
2023-11-23T00:41:54.362Z,101109.81
2023-11-23T00:46:57.029Z,101114.97
2023-11-23T00:51:59.761Z,101113.50
2023-11-23T00:57:03.748Z,101117.88
2023-11-23T01:02:06.734Z,101108.97
2023-11-23T01:07:09.426Z,101099.22
2023-11-23T01:12:13.410Z,101094.84
2023-11-23T01:17:16.033Z,101091.94
2023-11-23T01:22:19.143Z,101085.66
2023-11-23T01:27:23.089Z,101063.38
2023-11-23T01:32:25.860Z,101056.78
2023-11-23T01:37:29.011Z,101045.25
2023-11-23T01:42:33.009Z,101030.97
2023-11-23T01:47:39.457Z,101037.03
2023-11-23T01:52:43.289Z,101036.78
2023-11-23T01:57:50.082Z,101026.94
2023-11-23T02:02:53.102Z,101016.16
2023-11-23T02:07:55.822Z,101017.56
2023-11-23T02:12:59.776Z,100994.75
2023-11-23T02:18:03.342Z,100994.53
2023-11-23T02:23:09.579Z,100989.19
2023-11-23T02:28:13.516Z,100965.13
2023-11-23T02:33:16.420Z,100970.56
2023-11-23T02:38:19.392Z,100965.59
2023-11-23T02:43:23.402Z,100961.59
2023-11-23T02:48:26.042Z,100968.06
2023-11-23T02:53:33.987Z,100954.56
2023-11-23T02:58:38.021Z,100952.84
2023-11-23T03:03:40.642Z,100932.59
2023-11-23T03:08:45.316Z,100923.50
2023-11-23T03:13:50.295Z,100904.63
2023-11-23T03:18:53.044Z,100908.47
2023-11-23T03:23:57.165Z,100887.41
2023-11-23T03:29:01.109Z,100877.47
2023-11-23T03:34:03.960Z,100867.31
2023-11-23T03:39:08.086Z,100868.56
2023-11-23T03:44:12.117Z,100854.50
2023-11-23T03:49:14.720Z,100851.94
2023-11-23T03:54:17.401Z,100856.75
2023-11-23T03:59:21.603Z,100838.34
2023-11-23T04:04:24.466Z,100834.97
2023-11-23T04:09:27.200Z,100839.06
2023-11-23T04:14:32.083Z,100828.53
2023-11-23T04:19:34.823Z,100815.66
2023-11-23T04:24:40.418Z,100796.13
2023-11-23T04:29:44.616Z,100803.75
2023-11-23T04:34:47.707Z,100795.06
2023-11-23T04:39:50.349Z,100798.34
2023-11-23T04:44:54.278Z,100789.53
2023-11-23T05:21:56.365Z,100750.69
2023-11-23T05:26:58.960Z,100741.00
2023-11-23T05:32:01.563Z,100738.03
2023-11-23T05:37:05.869Z,100712.56
2023-11-23T05:42:09.142Z,100700.19
2023-11-23T05:47:11.829Z,100698.72
2023-11-23T05:52:23.087Z,100686.25
2023-11-23T05:57:26.089Z,100686.88
2023-11-23T06:02:28.715Z,100681.00
2023-11-23T06:07:32.706Z,100663.25
2023-11-23T06:12:40.795Z,100660.84
2023-11-23T06:17:43.407Z,100679.72
2023-11-23T06:22:49.308Z,100663.72
2023-11-23T06:27:55.559Z,100648.31
2023-11-23T06:33:01.599Z,100630.69
2023-11-23T06:38:05.785Z,100633.00
2023-11-23T06:43:08.425Z,100632.28
2023-11-23T06:48:11.090Z,100614.47
2023-11-23T06:53:15.450Z,100597.63
2023-11-23T06:58:18.026Z,100590.06
2023-11-23T07:03:22.578Z,100586.31
2023-11-23T07:08:26.507Z,100578.69
2023-11-23T07:13:29.387Z,100575.19
2023-11-23T07:18:32.607Z,100570.44
2023-11-23T07:23:37.520Z,100554.13
2023-11-23T07:28:40.291Z,100543.00
2023-11-23T07:33:44.935Z,100537.97
2023-11-23T07:38:49.645Z,100530.84
2023-11-23T07:43:52.319Z,100527.56
2023-11-23T07:48:54.974Z,100508.19
2023-11-23T07:53:58.952Z,100503.00
2023-11-23T07:59:01.566Z,100502.84
2023-11-23T08:04:05.186Z,100499.34
2023-11-23T08:09:11.399Z,100481.44
2023-11-23T08:14:14.239Z,100482.31
2023-11-23T08:19:17.195Z,100469.81
2023-11-23T08:24:27.276Z,100462.09
2023-11-23T08:29:31.175Z,100466.38
2023-11-23T08:34:33.827Z,100466.09
2023-11-23T08:39:38.658Z,100452.75
2023-11-23T08:44:41.921Z,100446.03
2023-11-23T08:49:44.519Z,100432.25
2023-11-23T08:54:48.459Z,100419.31
2023-11-23T08:59:51.017Z,100405.31
2023-11-23T09:04:53.770Z,100389.09
2023-11-23T09:09:58.371Z,100399.53
2023-11-23T09:15:01.391Z,100389.81
2023-11-23T09:20:06.514Z,100379.78
2023-11-23T09:25:10.695Z,100382.63
2023-11-23T09:30:14.183Z,100379.59
2023-11-23T09:35:16.923Z,100367.19
2023-11-23T09:40:21.554Z,100350.34
2023-11-23T09:45:26.670Z,100368.69
2023-11-23T09:50:33.781Z,100348.97
2023-11-23T09:55:40.296Z,100341.97
2023-11-23T10:00:42.981Z,100303.38
2023-11-23T10:05:46.261Z,100294.41
2023-11-23T10:10:50.219Z,100281.00
2023-11-23T10:15:52.865Z,100278.06
2023-11-23T10:20:57.721Z,100278.25
2023-11-23T10:26:03.206Z,100274.47
2023-11-23T10:31:06.719Z,100262.13
2023-11-23T10:36:09.889Z,100263.50
2023-11-23T10:41:15.816Z,100244.56
2023-11-23T10:46:20.634Z,100256.66
2023-11-23T10:51:26.395Z,100267.00
2023-11-23T10:56:33.045Z,100257.88
2023-11-23T11:01:37.006Z,100233.56
2023-11-23T11:06:40.949Z,100243.13
2023-11-23T11:11:55.306Z,100228.38
2023-11-23T11:17:02.485Z,100234.13
2023-11-23T11:22:13.257Z,100230.03
2023-11-23T11:27:20.948Z,100221.31
2023-11-23T11:32:23.607Z,100213.81
2023-11-23T11:37:26.820Z,100210.09
2023-11-23T11:42:32.024Z,100200.59
2023-11-23T11:47:35.185Z,100189.53
2023-11-23T11:52:38.442Z,100180.69
2023-11-23T11:57:43.029Z,100167.00
2023-11-23T12:02:45.814Z,100144.84
2023-11-23T12:07:54.139Z,100143.19
2023-11-23T12:12:58.140Z,100131.28
2023-11-23T12:18:03.695Z,100096.00
2023-11-23T12:23:06.644Z,100087.88
2023-11-23T12:28:14.960Z,100074.09
2023-11-23T12:33:17.836Z,100070.66
2023-11-23T12:38:20.554Z,100066.22
2023-11-23T12:43:24.596Z,100066.53
2023-11-23T12:48:27.421Z,100054.88
2023-11-23T12:53:30.958Z,100042.03
2023-11-23T12:58:35.603Z,100033.91
2023-11-23T13:03:38.976Z,100024.19
2023-11-23T13:08:41.675Z,100017.47
2023-11-23T13:13:46.911Z,100000.72
2023-11-23T13:19:05.489Z,99974.66
2023-11-23T13:24:13.167Z,99960.22
2023-11-23T13:29:17.326Z,99937.59
2023-11-23T13:34:20.653Z,99920.06
2023-11-23T13:39:23.636Z,99923.31
2023-11-23T13:44:27.657Z,99906.56
2023-11-23T13:49:30.234Z,99898.63
2023-11-23T13:54:32.887Z,99879.22
2023-11-23T13:59:37.130Z,99868.88
2023-11-23T14:04:41.447Z,99858.78
2023-11-23T14:09:44.045Z,99847.22
2023-11-23T14:14:49.297Z,99837.59
2023-11-23T14:19:52.566Z,99808.69
2023-11-23T14:24:55.409Z,99807.69
2023-11-23T14:29:59.435Z,99799.91
2023-11-23T14:35:02.055Z,99779.75
2023-11-23T14:40:14.338Z,99781.50
2023-11-23T14:45:18.761Z,99771.22
2023-11-23T14:50:22.262Z,99767.66
2023-11-23T14:55:25.136Z,99744.31
2023-11-23T15:00:30.882Z,99726.78
2023-11-23T15:05:33.968Z,99718.25
2023-11-23T15:10:36.614Z,99698.06
2023-11-23T15:15:43.604Z,99696.50
2023-11-23T15:20:47.333Z,99685.59
2023-11-23T15:25:51.894Z,99667.19
2023-11-23T15:30:55.997Z,99661.66
2023-11-23T15:35:59.299Z,99653.03
2023-11-23T15:41:02.012Z,99664.34
2023-11-23T15:46:06.850Z,99651.50
2023-11-23T15:51:10.360Z,99645.16
2023-11-23T15:56:17.388Z,99801.56
2023-11-23T16:01:25.983Z,99764.59
2023-11-23T16:06:28.839Z,99757.53
2023-11-23T16:11:31.566Z,99752.91
2023-11-23T16:16:35.981Z,99734.28
2023-11-23T16:21:38.658Z,99725.81
2023-11-23T16:26:41.360Z,99714.16
2023-11-23T16:31:46.189Z,99734.56
2023-11-23T16:36:49.598Z,99731.06
2023-11-23T16:41:52.290Z,99733.38
2023-11-23T16:46:57.277Z,99720.25
2023-11-23T16:51:59.996Z,99717.16
2023-11-23T16:57:04.706Z,99713.34
2023-11-23T17:02:09.866Z,99677.25
2023-11-23T17:07:13.626Z,99691.13
2023-11-23T17:12:16.261Z,99690.28
2023-11-23T17:17:20.311Z,99705.63
2023-11-23T17:22:22.923Z,99700.97
2023-11-23T17:27:25.576Z,99728.38
2023-11-23T17:32:29.610Z,99721.44
2023-11-23T17:37:32.412Z,99729.94
2023-11-23T17:42:35.215Z,99747.53
2023-11-23T17:47:39.475Z,99734.66
2023-11-23T17:52:42.648Z,99718.84
2023-11-23T17:57:45.359Z,99708.34
2023-11-23T18:02:49.437Z,99687.41
2023-11-23T18:07:52.067Z,99693.69
2023-11-23T18:12:55.645Z,99691.00
2023-11-23T18:18:00.692Z,99679.88
2023-11-23T18:23:03.472Z,99685.75
2023-11-23T18:28:06.086Z,99695.03
2023-11-23T18:33:10.143Z,99696.19
2023-11-23T18:38:14.404Z,99726.53
2023-11-23T18:43:17.111Z,99696.03
2023-11-23T18:48:22.270Z,99703.16
2023-11-23T18:53:24.923Z,99689.22
2023-11-23T18:58:27.567Z,99675.72
2023-11-23T19:03:32.020Z,99674.31
2023-11-23T19:08:34.793Z,99685.69
2023-11-23T19:13:37.676Z,99679.75
2023-11-23T19:18:48.983Z,99694.78
2023-11-23T19:23:52.236Z,99674.44
2023-11-23T19:28:59.403Z,99644.25
2023-11-23T19:34:04.518Z,99674.50
2023-11-23T19:39:09.967Z,99683.19
2023-11-23T19:44:14.244Z,99675.06
2023-11-23T19:49:19.979Z,99678.53
2023-11-23T19:54:22.639Z,99660.28
2023-11-23T19:59:25.282Z,99658.63
2023-11-23T20:04:29.295Z,99659.41
2023-11-23T20:09:32.386Z,99667.81
2023-11-23T20:14:35.956Z,99653.44
2023-11-23T20:19:41.688Z,99667.84
2023-11-23T20:24:44.422Z,99671.00
2023-11-23T20:29:47.074Z,99667.06
2023-11-23T20:34:51.074Z,99653.84
2023-11-23T20:39:53.720Z,99661.31
2023-11-23T20:44:56.355Z,99655.38
2023-11-23T20:50:01.346Z,99649.78
2023-11-23T20:55:07.553Z,99653.19
2023-11-23T21:00:13.073Z,99636.06
2023-11-23T21:05:18.479Z,99621.13
2023-11-23T21:10:21.558Z,99675.31
2023-11-23T21:15:24.204Z,99658.81
2023-11-23T21:20:29.202Z,99660.97
2023-11-23T21:25:31.781Z,99674.34
2023-11-23T21:30:34.385Z,99660.78
2023-11-23T21:35:39.275Z,99658.66
2023-11-23T21:40:41.930Z,99673.88
2023-11-23T21:45:45.532Z,99655.91
2023-11-23T21:50:49.601Z,99656.78
2023-11-23T21:55:52.372Z,99677.41
2023-11-23T22:00:54.990Z,99681.78
2023-11-23T22:05:58.968Z,99678.00
2023-11-23T22:11:01.554Z,99665.69
2023-11-23T22:16:04.362Z,99664.63
2023-11-23T22:21:09.424Z,99699.28
2023-11-23T22:26:15.066Z,99683.34
2023-11-23T22:31:19.762Z,99683.78
2023-11-23T22:36:24.748Z,99675.06
2023-11-23T22:41:28.793Z,99681.91
2023-11-23T22:46:32.383Z,99679.34
2023-11-23T22:51:36.537Z,99676.00
2023-11-23T22:56:39.260Z,99688.88
2023-11-23T23:01:41.934Z,99703.34
2023-11-23T23:06:45.921Z,99705.59
2023-11-23T23:11:49.127Z,99696.81
2023-11-23T23:16:51.787Z,99701.31
2023-11-23T23:21:55.764Z,99700.91
2023-11-23T23:26:58.376Z,99712.78
2023-11-23T23:32:01.012Z,99699.50
2023-11-23T23:37:05.205Z,99717.63
2023-11-23T23:42:07.823Z,99711.19
2023-11-23T23:47:10.393Z,99721.28
2023-11-23T23:52:14.419Z,99716.56
2023-11-23T23:57:19.459Z,99720.66
